Time;durP1;ratioP1;P1;durP2;ratioP2;P2;SDS_P1;SDS_P2;PMS_P1;PMS_P2;Temp;Humidity;BMP_temperature;BMP_pressure;BME280_temperature;BME280_humidity;BME280_pressure;Samples;Min_cycle;Max_cycle;Signal;HPM_P1;HPM_P2
2024/02/05 00:02:17;;;;;;;1.95;0.63;;;10.70;81.80;;;;;;5006034;28;20038;-75
2024/02/05 00:04:44;;;;;;;0.95;0.55;;;10.70;81.80;;;;;;5006559;28;20033;-74
2024/02/05 00:07:11;;;;;;;2.30;0.65;;;10.60;81.90;;;;;;5003882;28;20492;-74
2024/02/05 00:09:37;;;;;;;2.55;1.00;;;10.70;81.70;;;;;;5007809;28;20388;-74
2024/02/05 00:12:04;;;;;;;1.50;0.60;;;10.70;81.80;;;;;;5007003;28;20029;-74
2024/02/05 00:14:30;;;;;;;0.82;0.60;;;10.60;81.70;;;;;;5002909;28;20141;-75
2024/02/05 00:16:56;;;;;;;0.80;0.75;;;10.60;81.60;;;;;;4991698;28;20046;-75
2024/02/05 00:19:22;;;;;;;1.30;0.65;;;10.70;81.50;;;;;;5000913;28;20061;-74
2024/02/05 00:21:48;;;;;;;1.05;0.65;;;10.70;81.40;;;;;;5007178;28;20835;-75
2024/02/05 00:24:14;;;;;;;0.82;0.50;;;10.60;81.30;;;;;;5002951;28;20026;-73
2024/02/05 00:26:40;;;;;;;2.17;0.50;;;10.70;81.10;;;;;;5005068;28;20698;-73
2024/02/05 00:29:08;;;;;;;4.03;0.65;;;10.60;80.90;;;;;;5003362;28;20049;-74
2024/02/05 00:31:36;;;;;;;3.83;0.70;;;10.60;80.70;;;;;;5003759;28;20034;-74
2024/02/05 00:34:02;;;;;;;4.05;0.60;;;10.60;80.80;;;;;;5004051;28;20040;-74
2024/02/05 00:36:28;;;;;;;1.95;0.43;;;10.60;80.70;;;;;;5003991;28;20497;-74
2024/02/05 00:38:54;;;;;;;2.13;0.60;;;10.60;80.90;;;;;;5002390;28;20057;-74
2024/02/05 00:41:20;;;;;;;0.93;0.50;;;10.60;80.60;;;;;;5002059;28;20030;-74
2024/02/05 00:43:46;;;;;;;1.15;0.55;;;10.60;80.60;;;;;;5004029;28;20045;-73
2024/02/05 00:46:22;;;;;;;1.02;0.47;;;10.60;80.40;;;;;;5005270;28;20030;-74
2024/02/05 00:48:49;;;;;;;1.58;0.50;;;10.60;80.20;;;;;;5001031;28;20026;-74
2024/02/05 00:51:15;;;;;;;0.80;0.40;;;10.60;80.50;;;;;;5008738;28;20037;-74
2024/02/05 00:53:41;;;;;;;0.60;0.60;;;10.60;80.00;;;;;;5004956;28;20037;-75
2024/02/05 00:56:07;;;;;;;2.55;0.57;;;10.60;79.80;;;;;;5004189;28;20034;-74
2024/02/05 00:58:33;;;;;;;2.40;0.50;;;10.60;80.10;;;;;;5002298;28;20540;-75
2024/02/05 01:00:59;;;;;;;1.70;0.60;;;10.50;79.70;;;;;;5003900;28;20042;-75
2024/02/05 01:03:25;;;;;;;2.33;0.60;;;10.50;79.70;;;;;;5005795;28;20038;-74
2024/02/05 01:05:51;;;;;;;0.82;0.32;;;10.50;79.40;;;;;;5004072;28;20048;-74
2024/02/05 01:08:17;;;;;;;0.70;0.50;;;10.50;79.80;;;;;;5002449;28;20630;-75
2024/02/05 01:10:43;;;;;;;1.90;0.40;;;10.50;79.30;;;;;;5004813;28;20026;-75
2024/02/05 01:13:09;;;;;;;2.20;0.57;;;10.50;79.40;;;;;;5004244;28;20072;-75
2024/02/05 01:15:35;;;;;;;2.70;0.50;;;10.50;79.20;;;;;;5002726;28;20184;-74
2024/02/05 01:18:02;;;;;;;1.65;0.60;;;10.50;79.20;;;;;;5008067;28;20041;-75
2024/02/05 01:20:29;;;;;;;0.85;0.40;;;10.50;79.10;;;;;;5004045;28;20034;-74
2024/02/05 01:22:55;;;;;;;1.92;0.60;;;10.50;79.10;;;;;;5005371;28;20112;-74
2024/02/05 01:25:21;;;;;;;1.05;0.55;;;10.50;79.00;;;;;;5007053;28;20117;-74
2024/02/05 01:27:47;;;;;;;3.78;0.65;;;10.50;79.00;;;;;;5008526;28;20120;-74
2024/02/05 01:30:13;;;;;;;1.85;0.55;;;10.50;79.10;;;;;;5009430;28;20026;-74
2024/02/05 01:32:39;;;;;;;0.75;0.28;;;10.50;79.30;;;;;;5006324;28;20029;-74
2024/02/05 01:35:06;;;;;;;4.75;0.60;;;10.50;79.10;;;;;;5009187;28;20041;-73
2024/02/05 01:37:32;;;;;;;1.42;0.50;;;10.50;79.00;;;;;;5009484;28;20144;-75
2024/02/05 01:39:58;;;;;;;3.13;0.60;;;10.40;78.90;;;;;;5006114;28;20128;-75
2024/02/05 01:42:24;;;;;;;1.65;0.75;;;10.50;79.00;;;;;;5009566;28;20058;-75
2024/02/05 01:44:51;;;;;;;0.90;0.52;;;10.40;79.60;;;;;;5006676;28;20026;-75
2024/02/05 01:47:19;;;;;;;1.70;0.57;;;10.40;78.80;;;;;;5007045;28;20031;-76
2024/02/05 01:49:47;;;;;;;0.88;0.40;;;10.40;78.80;;;;;;5005597;28;20045;-76
2024/02/05 01:52:19;;;;;;;2.05;0.63;;;10.40;78.60;;;;;;5006237;28;20041;-74
2024/02/05 01:54:47;;;;;;;5.32;0.77;;;10.40;78.50;;;;;;5012488;28;20066;-73
2024/02/05 01:57:13;;;;;;;1.80;0.68;;;10.40;78.50;;;;;;5003932;28;20084;-74
2024/02/05 01:59:39;;;;;;;1.90;0.85;;;10.40;78.50;;;;;;5007081;28;20030;-75
2024/02/05 02:02:06;;;;;;;1.85;0.55;;;10.40;78.30;;;;;;5006514;28;20034;-75
2024/02/05 02:04:34;;;;;;;2.97;0.60;;;10.40;78.30;;;;;;5006824;28;20336;-75
2024/02/05 02:07:01;;;;;;;1.70;0.40;;;10.40;78.20;;;;;;5011267;28;20051;-74
2024/02/05 02:09:27;;;;;;;2.33;0.57;;;10.40;78.30;;;;;;5006259;28;20125;-75
2024/02/05 02:11:53;;;;;;;1.15;0.50;;;10.40;78.20;;;;;;5008402;28;20026;-74
2024/02/05 02:14:19;;;;;;;2.70;0.50;;;10.30;78.40;;;;;;5004110;28;20057;-75
2024/02/05 02:16:45;;;;;;;1.40;0.52;;;10.40;78.00;;;;;;5009444;28;20066;-75
2024/02/05 02:19:43;;;;;;;2.58;0.52;;;10.40;78.00;;;;;;4991543;28;20038;-75
2024/02/05 02:22:27;;;;;;;3.05;0.60;;;10.40;77.90;;;;;;5005126;28;20042;-74
2024/02/05 02:24:53;;;;;;;1.08;0.50;;;10.40;77.90;;;;;;5006417;28;20603;-74
2024/02/05 02:27:19;;;;;;;0.50;0.40;;;10.40;78.10;;;;;;5005132;28;20543;-74
2024/02/05 02:29:45;;;;;;;1.45;0.50;;;10.40;78.30;;;;;;5005460;28;20057;-75
2024/02/05 02:32:12;;;;;;;2.15;0.68;;;10.40;78.30;;;;;;5003991;28;20384;-75
2024/02/05 02:34:42;;;;;;;1.25;0.60;;;10.40;78.30;;;;;;5006562;28;20038;-76
2024/02/05 02:37:12;;;;;;;0.93;0.43;;;10.30;78.30;;;;;;5004024;28;20419;-74
2024/02/05 02:39:51;;;;;;;0.88;0.50;;;10.40;78.50;;;;;;5005146;28;20087;-75
2024/02/05 02:42:19;;;;;;;1.35;0.50;;;10.40;78.20;;;;;;5005464;28;20404;-76
2024/02/05 02:44:46;;;;;;;1.15;0.60;;;10.40;78.20;;;;;;5007420;28;20034;-75
2024/02/05 02:47:12;;;;;;;2.15;0.60;;;10.40;78.00;;;;;;5006495;28;20421;-75
2024/02/05 02:49:38;;;;;;;2.92;0.90;;;10.40;78.00;;;;;;5001516;28;20037;-75
2024/02/05 02:52:04;;;;;;;2.17;0.60;;;10.30;78.30;;;;;;5013003;28;20042;-74
2024/02/05 02:54:30;;;;;;;0.98;0.70;;;10.40;78.20;;;;;;5006135;28;20145;-75
2024/02/05 02:56:56;;;;;;;2.08;0.80;;;10.40;78.10;;;;;;4993836;28;20065;-75
2024/02/05 02:59:22;;;;;;;1.08;0.73;;;10.40;78.10;;;;;;5004154;28;20121;-74
2024/02/05 03:01:48;;;;;;;3.42;1.02;;;10.40;78.20;;;;;;5004300;28;20049;-75
2024/02/05 03:04:15;;;;;;;2.63;0.70;;;10.30;77.80;;;;;;5007117;28;20038;-75
2024/02/05 03:06:41;;;;;;;1.67;0.70;;;10.40;77.80;;;;;;5009295;28;20173;-75
2024/02/05 03:09:08;;;;;;;5.28;1.15;;;10.30;77.70;;;;;;5002212;28;20117;-74
2024/02/05 03:11:34;;;;;;;1.40;0.65;;;10.30;77.60;;;;;;5006327;28;20032;-74
2024/02/05 03:14:00;;;;;;;3.03;0.60;;;10.30;77.60;;;;;;4994028;28;20029;-73
2024/02/05 03:16:26;;;;;;;2.75;0.82;;;10.40;77.70;;;;;;5008712;28;20030;-74
2024/02/05 03:18:52;;;;;;;1.98;0.60;;;10.30;77.50;;;;;;5006399;28;20531;-74
2024/02/05 03:21:17;;;;;;;3.22;1.15;;;10.30;77.50;;;;;;5007293;28;20124;-75
2024/02/05 03:23:44;;;;;;;2.90;1.20;;;10.30;77.70;;;;;;4992345;28;20037;-74
2024/02/05 03:26:10;;;;;;;1.25;0.73;;;10.30;77.60;;;;;;5002264;28;20048;-75
2024/02/05 03:28:36;;;;;;;2.97;1.05;;;10.30;77.80;;;;;;5008970;28;20065;-76
2024/02/05 03:31:05;;;;;;;1.83;0.55;;;10.30;77.60;;;;;;5009638;28;20046;-75
2024/02/05 03:33:31;;;;;;;2.15;0.93;;;10.30;77.60;;;;;;5004025;28;20504;-76
2024/02/05 03:35:57;;;;;;;4.25;1.00;;;10.30;77.40;;;;;;5008323;28;20043;-76
2024/02/05 03:38:23;;;;;;;1.60;0.88;;;10.30;77.40;;;;;;5000410;28;20493;-76
2024/02/05 03:40:49;;;;;;;1.23;0.82;;;10.30;77.50;;;;;;5003311;28;20061;-76
2024/02/05 03:43:15;;;;;;;2.22;0.95;;;10.30;77.50;;;;;;5007198;28;20377;-76
2024/02/05 03:45:41;;;;;;;2.28;0.70;;;10.30;77.60;;;;;;5004676;28;20145;-76
2024/02/05 03:48:07;;;;;;;1.85;0.90;;;10.30;77.60;;;;;;5007222;28;20080;-75
2024/02/05 03:50:33;;;;;;;1.48;0.80;;;10.30;77.40;;;;;;5003041;28;20041;-75
2024/02/05 03:53:00;;;;;;;1.75;0.82;;;10.30;77.30;;;;;;5006871;28;20046;-76
2024/02/05 03:55:26;;;;;;;3.90;0.93;;;10.30;77.30;;;;;;5005149;28;20431;-76
2024/02/05 03:58:00;;;;;;;3.22;0.85;;;10.30;77.30;;;;;;5001676;28;20042;-76
2024/02/05 04:00:26;;;;;;;2.05;0.90;;;10.30;77.10;;;;;;5003319;28;22139;-76
2024/02/05 04:02:52;;;;;;;1.30;0.60;;;10.30;77.20;;;;;;5006364;28;20503;-76
2024/02/05 04:05:18;;;;;;;2.67;0.90;;;10.30;77.30;;;;;;5003948;28;20044;-76
2024/02/05 04:07:44;;;;;;;2.97;0.93;;;10.30;77.20;;;;;;5006164;28;20132;-76
2024/02/05 04:10:10;;;;;;;2.70;0.90;;;10.30;77.20;;;;;;5002050;28;20592;-76
2024/02/05 04:12:36;;;;;;;2.30;0.70;;;10.30;76.90;;;;;;5003248;28;20054;-77
2024/02/05 04:15:03;;;;;;;2.45;0.80;;;10.30;77.00;;;;;;5002426;28;20069;-76
2024/02/05 04:17:30;;;;;;;1.08;0.85;;;10.30;76.50;;;;;;5008615;28;20042;-76
2024/02/05 04:19:56;;;;;;;2.95;0.93;;;10.30;76.50;;;;;;5005151;28;20053;-75
2024/02/05 04:22:22;;;;;;;1.55;0.80;;;10.30;76.60;;;;;;5001949;28;20040;-76
2024/02/05 04:24:48;;;;;;;1.23;0.65;;;10.30;76.40;;;;;;5010064;28;20029;-74
2024/02/05 04:27:14;;;;;;;1.25;0.80;;;10.30;76.30;;;;;;5005192;28;20496;-75
2024/02/05 04:29:41;;;;;;;1.92;1.10;;;10.30;76.40;;;;;;5007185;28;20484;-75
2024/02/05 04:32:07;;;;;;;2.28;0.70;;;10.30;76.20;;;;;;5002802;28;20034;-76
2024/02/05 04:34:33;;;;;;;2.17;0.90;;;10.30;76.30;;;;;;5023852;28;20432;-77
2024/02/05 04:36:59;;;;;;;1.98;1.35;;;10.30;76.40;;;;;;4990613;28;20029;-79
2024/02/05 04:39:25;;;;;;;3.70;1.13;;;10.30;76.10;;;;;;5006995;28;20462;-80
2024/02/05 04:41:51;;;;;;;1.85;1.00;;;10.30;76.10;;;;;;5005187;28;20025;-79
2024/02/05 04:44:17;;;;;;;4.20;1.13;;;10.30;76.10;;;;;;5008088;28;20038;-76
2024/02/05 04:46:44;;;;;;;1.67;1.00;;;10.30;75.90;;;;;;5004217;28;20030;-77
2024/02/05 04:49:10;;;;;;;3.85;1.42;;;10.30;75.90;;;;;;5003881;28;20065;-76
2024/02/05 04:51:36;;;;;;;3.15;1.40;;;10.30;76.10;;;;;;5004940;28;20030;-77
2024/02/05 04:54:03;;;;;;;3.03;0.98;;;10.30;76.30;;;;;;5003597;28;20030;-78
2024/02/05 04:56:29;;;;;;;3.78;1.48;;;10.30;76.60;;;;;;5003110;28;20121;-80
2024/02/05 04:58:55;;;;;;;3.33;1.75;;;10.30;76.60;;;;;;5004748;28;20137;-80
2024/02/05 05:01:21;;;;;;;4.30;1.52;;;10.30;76.60;;;;;;5009644;28;20140;-79
2024/02/05 05:03:47;;;;;;;1.60;1.10;;;10.30;76.90;;;;;;5004667;28;20042;-78
2024/02/05 05:06:13;;;;;;;2.20;1.60;;;10.30;76.80;;;;;;5010438;28;20451;-78
2024/02/05 05:08:39;;;;;;;2.92;1.33;;;10.30;77.00;;;;;;5010069;28;20033;-79
2024/02/05 05:11:05;;;;;;;3.35;1.67;;;10.30;77.10;;;;;;5012215;28;20042;-80
2024/02/05 05:13:31;;;;;;;6.93;2.40;;;10.30;79.20;;;;;;4989435;28;20038;-79
2024/02/05 05:15:59;;;;;;;3.63;2.47;;;10.30;80.20;;;;;;5007510;28;20030;-79
2024/02/05 05:18:25;;;;;;;9.25;3.17;;;10.30;80.30;;;;;;5007023;28;20396;-79
2024/02/05 05:20:51;;;;;;;5.03;3.50;;;10.30;80.10;;;;;;5007368;28;20018;-79
2024/02/05 05:23:17;;;;;;;5.93;3.85;;;10.30;80.10;;;;;;5007834;28;20101;-79
2024/02/05 05:25:43;;;;;;;22.90;4.05;;;10.30;79.70;;;;;;5005436;28;20053;-79
2024/02/05 05:28:09;;;;;;;6.55;2.97;;;10.30;79.40;;;;;;5004269;28;20061;-79
2024/02/05 05:30:35;;;;;;;7.63;3.00;;;10.30;79.20;;;;;;4996666;28;20470;-78
2024/02/05 05:33:01;;;;;;;4.90;3.00;;;10.30;79.10;;;;;;5008826;28;20116;-79
2024/02/05 05:35:27;;;;;;;8.10;3.33;;;10.30;78.80;;;;;;5007530;28;20073;-78
2024/02/05 05:37:53;;;;;;;4.50;2.53;;;10.30;78.70;;;;;;5005582;28;20119;-80
2024/02/05 05:40:19;;;;;;;2.38;2.17;;;10.30;78.50;;;;;;5006827;28;20171;-79
2024/02/05 05:42:45;;;;;;;5.45;2.47;;;10.30;78.50;;;;;;5003178;28;20034;-79
2024/02/05 05:45:11;;;;;;;3.40;2.15;;;10.30;78.20;;;;;;5005769;28;20035;-79
2024/02/05 05:50:22;;;;;;;2.37;1.60;;;10.30;77.80;;;;;;5009653;28;20041;-80
2024/02/05 05:53:08;;;;;;;4.03;2.10;;;10.30;77.50;;;;;;5007820;28;20409;-79
2024/02/05 05:55:34;;;;;;;3.97;1.80;;;10.30;77.30;;;;;;5008775;28;20042;-79
2024/02/05 05:58:00;;;;;;;3.95;2.08;;;10.30;77.30;;;;;;5006042;28;20045;-78
2024/02/05 06:00:26;;;;;;;3.28;1.98;;;10.30;77.00;;;;;;5010263;28;21138;-79
2024/02/05 06:02:52;;;;;;;3.92;1.90;;;10.30;76.90;;;;;;5022744;28;20481;-78
2024/02/05 06:05:18;;;;;;;4.93;2.10;;;10.30;76.90;;;;;;5007429;28;20185;-78
2024/02/05 06:07:44;;;;;;;3.55;1.90;;;10.30;76.90;;;;;;5004136;28;20033;-79
2024/02/05 06:10:11;;;;;;;3.83;1.85;;;10.30;76.60;;;;;;5006212;28;20033;-79
2024/02/05 06:12:37;;;;;;;2.38;1.75;;;10.30;76.60;;;;;;5008042;28;20057;-78
2024/02/05 06:15:04;;;;;;;2.28;1.42;;;10.30;76.60;;;;;;5005599;28;20425;-80
2024/02/05 06:17:48;;;;;;;3.47;2.00;;;10.30;76.40;;;;;;5003994;28;20037;-81
2024/02/05 06:20:14;;;;;;;4.45;2.00;;;10.30;76.40;;;;;;5004899;28;20035;-79
2024/02/05 06:22:40;;;;;;;3.13;1.92;;;10.30;76.20;;;;;;5011195;28;20041;-77
2024/02/05 06:25:06;;;;;;;4.78;2.10;;;10.30;76.20;;;;;;5004997;28;20096;-78
2024/02/05 06:27:32;;;;;;;3.10;1.80;;;10.40;76.20;;;;;;5003883;28;20050;-77
2024/02/05 06:29:58;;;;;;;5.35;2.30;;;10.40;76.60;;;;;;5005400;28;20070;-77
2024/02/05 06:32:24;;;;;;;3.42;1.85;;;10.30;76.40;;;;;;5009192;28;20045;-77
2024/02/05 06:34:50;;;;;;;3.78;1.95;;;10.40;76.40;;;;;;5006156;28;20046;-76
2024/02/05 06:37:16;;;;;;;4.82;2.17;;;10.40;76.60;;;;;;5003953;28;20046;-77
2024/02/05 06:39:42;;;;;;;4.65;2.00;;;10.40;76.60;;;;;;5007524;28;20029;-77
2024/02/05 06:42:08;;;;;;;5.43;1.90;;;10.40;76.60;;;;;;4993813;28;20026;-78
2024/02/05 06:44:34;;;;;;;4.45;2.42;;;10.40;76.70;;;;;;5007224;28;20026;-78
2024/02/05 06:47:04;;;;;;;3.75;2.03;;;10.40;76.70;;;;;;4994350;28;20026;-78
2024/02/05 06:49:30;;;;;;;4.80;2.30;;;10.40;76.80;;;;;;4996044;28;20030;-77
2024/02/05 06:51:56;;;;;;;5.22;2.30;;;10.40;76.80;;;;;;5008004;28;20033;-77
2024/02/05 06:54:22;;;;;;;3.58;1.90;;;10.40;76.70;;;;;;5007244;28;20030;-77
2024/02/05 06:56:48;;;;;;;2.28;1.65;;;10.40;76.50;;;;;;5005387;28;20032;-77
2024/02/05 06:59:15;;;;;;;4.43;1.90;;;10.40;76.60;;;;;;5008271;28;20057;-77
2024/02/05 07:01:41;;;;;;;2.97;1.75;;;10.40;76.40;;;;;;5006453;28;20392;-77
2024/02/05 07:04:07;;;;;;;5.38;2.10;;;10.40;76.30;;;;;;5008722;28;21033;-77
2024/02/05 07:06:33;;;;;;;2.17;1.70;;;10.40;76.10;;;;;;4989945;28;20439;-77
2024/02/05 07:08:59;;;;;;;3.92;2.08;;;10.40;75.90;;;;;;5005105;28;20646;-77
2024/02/05 07:11:25;;;;;;;3.70;2.38;;;10.40;76.00;;;;;;5007972;28;20066;-77
2024/02/05 07:13:51;;;;;;;3.75;1.70;;;10.40;76.00;;;;;;5002742;28;20084;-77
2024/02/05 07:16:18;;;;;;;4.32;1.95;;;10.50;75.90;;;;;;5005241;28;20044;-77
2024/02/05 07:18:46;;;;;;;3.10;1.92;;;10.50;76.10;;;;;;5006401;28;20065;-77
2024/02/05 07:21:12;;;;;;;3.42;1.80;;;10.50;76.10;;;;;;5007042;28;20026;-77
2024/02/05 07:23:38;;;;;;;2.33;1.60;;;10.50;75.70;;;;;;5006833;28;20029;-77
2024/02/05 07:26:05;;;;;;;3.50;1.80;;;10.50;75.50;;;;;;5005850;28;20037;-77
2024/02/05 07:28:31;;;;;;;4.35;1.85;;;10.50;75.70;;;;;;5003621;28;20057;-77
2024/02/05 07:30:57;;;;;;;2.65;1.70;;;10.50;75.50;;;;;;5005890;28;20049;-77
2024/02/05 07:33:24;;;;;;;2.53;1.55;;;10.50;75.40;;;;;;5006261;28;20480;-77
2024/02/05 07:35:50;;;;;;;4.65;1.70;;;10.50;75.20;;;;;;5004297;28;20520;-77
2024/02/05 07:38:16;;;;;;;2.80;1.50;;;10.50;75.00;;;;;;5006704;28;20078;-79
2024/02/05 07:40:42;;;;;;;3.97;1.85;;;10.50;74.70;;;;;;5007751;28;20188;-78
2024/02/05 07:43:08;;;;;;;4.43;1.77;;;10.50;74.70;;;;;;5003221;28;20034;-76
2024/02/05 07:45:34;;;;;;;4.53;1.67;;;10.50;75.00;;;;;;4988392;28;20039;-76
2024/02/05 07:48:01;;;;;;;2.55;1.58;;;10.50;74.90;;;;;;5003029;28;20037;-77
2024/02/05 07:50:27;;;;;;;3.85;1.55;;;10.50;74.80;;;;;;5004035;28;20076;-80
2024/02/05 07:52:53;;;;;;;2.85;1.77;;;10.50;74.90;;;;;;5003148;28;20053;-78
2024/02/05 07:55:19;;;;;;;5.68;1.88;;;10.60;74.70;;;;;;5009245;28;20038;-78
2024/02/05 07:57:45;;;;;;;4.35;1.67;;;10.50;74.80;;;;;;5007425;28;20034;-78
2024/02/05 08:00:12;;;;;;;6.63;1.70;;;10.60;74.90;;;;;;5002890;28;20394;-78
2024/02/05 08:02:38;;;;;;;3.55;1.63;;;10.60;75.40;;;;;;5004048;28;20105;-78
2024/02/05 08:05:05;;;;;;;2.33;1.10;;;10.60;74.50;;;;;;5002900;28;20048;-78
2024/02/05 08:07:31;;;;;;;2.92;1.30;;;10.60;74.30;;;;;;5002460;28;20038;-78
2024/02/05 08:09:57;;;;;;;2.92;1.35;;;10.60;74.00;;;;;;5003523;28;20137;-79
2024/02/05 08:12:23;;;;;;;3.53;1.52;;;10.60;74.10;;;;;;5005018;28;20033;-77
2024/02/05 08:14:49;;;;;;;2.05;1.25;;;10.60;73.80;;;;;;5005124;28;20054;-77
2024/02/05 08:17:15;;;;;;;2.38;1.45;;;10.60;73.40;;;;;;5008849;28;20121;-78
2024/02/05 08:19:41;;;;;;;2.67;1.30;;;10.60;73.80;;;;;;5002176;28;20048;-78
2024/02/05 08:22:07;;;;;;;2.63;1.40;;;10.70;73.70;;;;;;5008121;28;20045;-78
2024/02/05 08:24:33;;;;;;;1.50;1.30;;;10.70;73.40;;;;;;5003992;28;20030;-77
2024/02/05 08:27:00;;;;;;;3.58;1.48;;;10.70;74.00;;;;;;5002185;28;20094;-77
2024/02/05 08:29:26;;;;;;;2.38;1.13;;;10.70;74.20;;;;;;5002871;28;20280;-77
2024/02/05 08:31:52;;;;;;;3.15;1.27;;;10.70;74.20;;;;;;5001349;28;20041;-80
2024/02/05 08:34:19;;;;;;;2.65;1.30;;;10.70;74.00;;;;;;5006914;28;20111;-78
2024/02/05 08:36:44;;;;;;;4.18;1.25;;;10.70;73.60;;;;;;5005424;28;20038;-77
2024/02/05 08:39:10;;;;;;;2.70;1.30;;;10.70;73.10;;;;;;5002742;28;20054;-79
2024/02/05 08:41:38;;;;;;;1.75;1.25;;;10.70;73.10;;;;;;5008251;28;20374;-78
2024/02/05 08:44:04;;;;;;;2.45;1.40;;;10.70;72.80;;;;;;5004882;28;20033;-79
2024/02/05 08:46:30;;;;;;;2.35;1.50;;;10.70;72.90;;;;;;5004661;28;20062;-78
2024/02/05 08:48:56;;;;;;;3.97;1.35;;;10.70;72.80;;;;;;5003184;28;20034;-80
2024/02/05 08:51:22;;;;;;;5.15;1.85;;;10.70;72.40;;;;;;5001582;28;20033;-78
2024/02/05 08:53:48;;;;;;;3.35;1.30;;;10.70;72.40;;;;;;5005847;28;20026;-76
2024/02/05 08:56:14;;;;;;;2.90;1.55;;;10.70;72.30;;;;;;5001456;28;20092;-76
2024/02/05 08:58:40;;;;;;;3.30;1.45;;;10.70;72.40;;;;;;5000316;28;20095;-78
2024/02/05 09:01:06;;;;;;;3.15;1.60;;;10.70;72.30;;;;;;4974542;28;20036;-78
2024/02/05 09:03:32;;;;;;;3.08;1.50;;;10.70;71.90;;;;;;5004415;28;20029;-78
2024/02/05 09:05:59;;;;;;;3.88;1.40;;;10.70;71.80;;;;;;5005560;28;20033;-76
2024/02/05 09:08:25;;;;;;;2.88;1.65;;;10.70;71.80;;;;;;5003614;28;20393;-76
2024/02/05 09:10:51;;;;;;;3.00;1.80;;;10.70;71.70;;;;;;5000282;28;20049;-79
2024/02/05 09:13:18;;;;;;;3.92;1.90;;;10.70;71.60;;;;;;4999355;28;20038;-84
2024/02/05 09:15:44;;;;;;;3.33;1.73;;;10.80;71.40;;;;;;5001195;28;20037;-78
2024/02/05 09:18:10;;;;;;;3.38;1.73;;;10.80;71.10;;;;;;4987749;28;20062;-79
2024/02/05 09:20:36;;;;;;;5.30;1.88;;;10.70;71.10;;;;;;5001087;28;20030;-79
2024/02/05 09:23:03;;;;;;;5.60;2.05;;;10.70;71.40;;;;;;5000262;28;20785;-79
2024/02/05 09:25:29;;;;;;;3.65;1.67;;;10.70;71.10;;;;;;5002879;28;20054;-79
2024/02/05 09:27:55;;;;;;;3.58;1.80;;;10.80;71.30;;;;;;5002138;28;20113;-79
2024/02/05 09:30:21;;;;;;;2.35;1.70;;;10.80;71.60;;;;;;5002959;28;20037;-80
2024/02/05 09:32:48;;;;;;;3.67;1.60;;;10.80;71.90;;;;;;5005358;28;20037;-79
2024/02/05 09:35:14;;;;;;;4.35;1.88;;;10.80;71.80;;;;;;4983101;28;20033;-80
2024/02/05 09:37:40;;;;;;;3.88;1.50;;;10.80;72.50;;;;;;5001050;28;20056;-80
2024/02/05 09:40:07;;;;;;;2.75;1.50;;;10.80;72.60;;;;;;5003860;28;20042;-79
2024/02/05 09:42:34;;;;;;;4.90;1.60;;;10.80;72.70;;;;;;5002540;28;20048;-80
2024/02/05 09:45:01;;;;;;;4.43;1.67;;;10.80;72.70;;;;;;5002359;28;20068;-80
2024/02/05 09:47:30;;;;;;;3.78;2.03;;;10.90;72.40;;;;;;5002010;28;20050;-79
2024/02/05 09:49:59;;;;;;;4.30;1.88;;;10.80;72.20;;;;;;5003562;28;20041;-79
2024/02/05 09:52:28;;;;;;;4.78;1.77;;;10.90;72.30;;;;;;5000934;28;20030;-80
2024/02/05 09:54:56;;;;;;;4.22;1.98;;;10.90;72.50;;;;;;5004963;28;20061;-79
2024/02/05 09:57:24;;;;;;;2.35;1.42;;;10.90;72.40;;;;;;5006480;28;20572;-80
2024/02/05 09:59:51;;;;;;;3.13;1.45;;;10.90;72.50;;;;;;5007935;28;20111;-80
2024/02/05 10:02:17;;;;;;;3.97;2.25;;;10.90;72.20;;;;;;5003497;28;20497;-79
2024/02/05 10:04:45;;;;;;;3.97;1.60;;;10.90;72.10;;;;;;5004717;28;20494;-79
2024/02/05 10:07:15;;;;;;;4.30;1.92;;;10.90;71.90;;;;;;5002306;28;20033;-78
2024/02/05 10:09:42;;;;;;;3.40;1.48;;;10.90;71.80;;;;;;5011859;28;20107;-82
2024/02/05 10:12:10;;;;;;;9.93;2.38;;;11.00;71.90;;;;;;5007921;28;20757;-81
2024/02/05 10:14:42;;;;;;;5.45;1.05;;;11.10;77.30;;;;;;5005314;28;20035;-79
2024/02/05 10:17:08;;;;;;;3.17;1.30;;;11.20;81.40;;;;;;5003595;28;20042;-79
2024/02/05 10:19:34;;;;;;;4.78;1.60;;;11.20;82.30;;;;;;5004984;28;20489;-79
2024/02/05 10:22:01;;;;;;;3.25;1.85;;;11.20;80.20;;;;;;5003787;28;20045;-77
2024/02/05 10:24:28;;;;;;;2.63;1.60;;;11.20;80.60;;;;;;5003747;28;20100;-80
2024/02/05 10:26:54;;;;;;;3.50;1.55;;;11.20;79.50;;;;;;5004640;28;20037;-82
2024/02/05 10:29:23;;;;;;;3.53;1.50;;;11.30;79.70;;;;;;5004749;28;20064;-79
2024/02/05 10:31:53;;;;;;;3.53;1.77;;;11.30;79.10;;;;;;5005424;28;20369;-77
2024/02/05 10:34:25;;;;;;;3.75;1.60;;;11.30;79.60;;;;;;5006750;28;20041;-79
2024/02/05 10:36:52;;;;;;;3.38;1.90;;;11.30;78.80;;;;;;5003162;28;20053;-79
2024/02/05 10:39:27;;;;;;;2.42;1.50;;;11.30;79.60;;;;;;5004997;28;20084;-80
2024/02/05 10:41:54;;;;;;;4.85;2.30;;;11.30;78.40;;;;;;5004830;28;20022;-80
2024/02/05 10:44:21;;;;;;;4.20;1.92;;;11.30;76.20;;;;;;5004444;28;20041;-82
2024/02/05 10:46:49;;;;;;;3.33;2.03;;;11.30;78.50;;;;;;4990880;28;20152;-79
2024/02/05 10:49:16;;;;;;;3.22;1.70;;;11.30;76.20;;;;;;5004697;28;20041;-81
2024/02/05 10:51:44;;;;;;;4.18;1.92;;;11.30;75.20;;;;;;5000843;28;20034;-80
2024/02/05 10:54:11;;;;;;;3.33;1.50;;;11.30;74.90;;;;;;5005934;28;20113;-80
2024/02/05 10:56:41;;;;;;;2.72;1.60;;;11.30;75.20;;;;;;4996691;28;20034;-80
2024/02/05 10:59:10;;;;;;;3.28;1.48;;;11.30;75.00;;;;;;5016098;28;20208;-80
2024/02/05 11:01:47;;;;;;;3.63;2.13;;;11.30;74.40;;;;;;5003215;28;20038;-79
2024/02/05 11:04:17;;;;;;;2.97;2.08;;;11.30;75.70;;;;;;5004542;28;20507;-79
2024/02/05 11:06:47;;;;;;;3.50;2.47;;;11.40;75.50;;;;;;5006759;28;20125;-80
2024/02/05 11:09:15;;;;;;;4.93;2.28;;;11.30;77.30;;;;;;5005976;28;20034;-80
2024/02/05 11:11:46;;;;;;;4.90;2.38;;;11.30;77.00;;;;;;5007344;28;20029;-81
2024/02/05 11:14:15;;;;;;;4.22;2.10;;;11.40;76.40;;;;;;5005589;28;20052;-82
2024/02/05 11:16:42;;;;;;;3.95;1.95;;;11.40;76.00;;;;;;4994778;28;20132;-81
2024/02/05 11:19:12;;;;;;;4.68;2.10;;;11.40;76.90;;;;;;4989324;28;20042;-81
2024/02/05 11:21:46;;;;;;;4.32;2.00;;;11.30;77.70;;;;;;5005054;28;20034;-81
2024/02/05 11:24:15;;;;;;;4.75;2.15;;;11.40;75.20;;;;;;5002340;28;20037;-80
2024/02/05 11:26:41;;;;;;;4.18;1.85;;;11.40;75.10;;;;;;5001520;28;20034;-81
2024/02/05 11:29:07;;;;;;;6.53;2.10;;;11.40;74.70;;;;;;5006521;28;20504;-80
2024/02/05 11:31:39;;;;;;;3.92;2.30;;;11.40;75.20;;;;;;4989825;28;20053;-81
2024/02/05 11:34:09;;;;;;;4.40;1.95;;;11.40;74.80;;;;;;5003548;28;20037;-81
2024/02/05 11:36:42;;;;;;;2.97;1.60;;;11.40;73.70;;;;;;5002889;28;20117;-81
2024/02/05 11:39:09;;;;;;;3.88;2.13;;;11.40;74.50;;;;;;5001505;28;20053;-80
2024/02/05 11:41:36;;;;;;;3.22;1.95;;;11.40;74.70;;;;;;4992930;28;20027;-80
2024/02/05 11:44:07;;;;;;;2.83;1.63;;;11.40;74.40;;;;;;4980881;28;20045;-81
2024/02/05 11:46:34;;;;;;;5.03;2.13;;;11.40;74.30;;;;;;4995916;28;20484;-80
2024/02/05 11:49:01;;;;;;;3.13;2.00;;;11.40;74.90;;;;;;5000655;28;20054;-81
2024/02/05 11:51:28;;;;;;;3.58;1.80;;;11.40;74.00;;;;;;5003729;28;20229;-80
2024/02/05 11:53:55;;;;;;;2.25;1.65;;;11.40;74.20;;;;;;5002961;28;20141;-79
2024/02/05 11:56:22;;;;;;;2.90;1.42;;;11.40;74.10;;;;;;5003691;28;20076;-80
2024/02/05 11:58:49;;;;;;;5.25;2.05;;;11.40;74.00;;;;;;4989870;28;20193;-80
2024/02/05 12:01:16;;;;;;;2.60;1.50;;;11.40;73.40;;;;;;5006879;28;20035;-80
2024/02/05 12:03:46;;;;;;;4.45;1.63;;;11.50;73.80;;;;;;5004156;28;20583;-81
2024/02/05 12:06:15;;;;;;;2.60;1.48;;;11.40;73.50;;;;;;5001647;28;20085;-80
2024/02/05 12:08:46;;;;;;;2.10;1.38;;;11.40;73.90;;;;;;4998754;28;20037;-80
2024/02/05 12:11:13;;;;;;;2.60;1.60;;;11.50;74.00;;;;;;5001705;28;20418;-80
2024/02/05 12:13:39;;;;;;;2.63;1.45;;;11.50;73.20;;;;;;5007191;28;20038;-78
2024/02/05 12:16:11;;;;;;;3.28;1.30;;;11.50;72.80;;;;;;5002288;28;20424;-79
2024/02/05 12:18:41;;;;;;;2.15;1.20;;;11.50;73.20;;;;;;5001959;28;20060;-79
2024/02/05 12:21:08;;;;;;;3.85;1.73;;;11.50;73.40;;;;;;4986582;28;21137;-79
2024/02/05 12:23:53;;;;;;;1.92;1.20;;;11.50;73.40;;;;;;5009464;28;20034;-79
2024/02/05 12:26:19;;;;;;;2.80;1.45;;;11.50;73.50;;;;;;5003076;28;20049;-79
2024/02/05 12:28:50;;;;;;;3.28;1.45;;;11.50;73.60;;;;;;5001804;28;20481;-78
2024/02/05 12:31:23;;;;;;;1.80;1.10;;;11.50;75.40;;;;;;5002244;28;20536;-79
2024/02/05 12:33:56;;;;;;;2.50;1.33;;;11.40;74.90;;;;;;5005275;28;20548;-77
2024/02/05 12:36:23;;;;;;;2.88;1.25;;;11.50;75.00;;;;;;5004147;28;20029;-77
2024/02/05 12:38:52;;;;;;;2.08;1.10;;;11.40;74.10;;;;;;5003781;28;20050;-78
2024/02/05 12:41:18;;;;;;;4.50;1.50;;;11.50;73.70;;;;;;5004334;28;20026;-78
2024/02/05 12:43:45;;;;;;;2.55;1.38;;;11.50;74.10;;;;;;5004513;28;20042;-78
2024/02/05 12:46:12;;;;;;;3.10;1.30;;;11.50;73.60;;;;;;5001329;28;20034;-78
2024/02/05 12:48:38;;;;;;;1.20;0.80;;;11.50;73.50;;;;;;5001283;28;20039;-78
2024/02/05 12:51:07;;;;;;;2.30;1.13;;;11.50;74.60;;;;;;5001471;28;20145;-78